Terminal Aerodrome Forecast
Issued by NWS

Home | Current Version | Previous Version | Text Only | Print | Product List | Glossary Off
Versions: 1 2 3 4 5 6 7 8 9 10 11 12 13 14 15 16 17 18 19 20 21 22 23 24 25 26 27 28 29 30 31 32 33 34 35 36 37 38 39 40 41 42 43 44

986
FTUS43 KLOT 251120
TAFGYY
TAF
KGYY 251120Z 2512/2612 17008KT P6SM SCT250
     FM251500 16010KT P6SM SCT040 BKN250
     FM252000 18011KT P6SM VCSH SCT040 BKN200
      TEMPO 2522/2602 4SM TSRA SCT030 OVC040CB
     FM260200 18006KT P6SM SCT080 BKN250 PROB30 2606/2612 5SM TSRA
      BR OVC040CB=

USA.gov is the U.S. government's official web portal to all federal, state and local government web resources and services.